Terminal Aerodrome Forecast
Issued by NWS Duluth, MN

Home | Current Version | Previous Version | Text Only | Print | Product List | Glossary On
Versions: 1 2 3 4 5 6 7 8 9 10 11 12 13 14 15 16 17 18 19 20 21
000
FTUS43 KDLH 252255 AAA
TAFINL
TAF AMD
KINL 252255Z 2523/2618 25010KT P6SM VCTS SCT050CB BKN100
      TEMPO 2523/2601 -RA BKN050
     FM260400 00000KT 5SM BR FEW040 SCT080
     FM260600 00000KT 3SM BR SCT070
     FM261200 24006KT P6SM SCT070=

USA.gov is the U.S. government's official web portal to all federal, state and local government web resources and services.